Airfield :
LOGIN :

Register | Disclaimer

   EN    FR    IT 

 










Legend :    VFR   Marginal VFR   IFR   Intensive IFR   Very Intensive IFR
Visi :
Ceiling :
>= 8 km
>= 3000ft
5 to 8 km
1000 to 3000 ft
1500m to 5 km
500 to 1000 ft
800 to 1500m
200 to 500 ft
< 800m
< 200 ft
Symbols :   Thunderstorms  Fog  Heavy snow  Heavy precipitations  Wind > 20 kt
SIGMETs :     Misc.  Thunderstorms  Icing  Turbulence  Mountain Waves  Volcanic Ashes






- Airport Elevation : 160 ft
- IATA code : LRT


LFRH - Lorient Lann Bihoue

CURRENT METAR :
  • 261130Z AUTO 06008KT 030V090 7000 BKN013 04/01 Q1036 NOSIG

EXPIRED METARs :
  • 261100Z AUTO 07007KT 5000 BR BKN013 04/02 Q1036 BECMG BKN008
  • 261030Z AUTO 04005KT 020V080 5000 BR BKN012 03/01 Q1036 BECMG BKN008
  • 261000Z AUTO 06005KT 4600 BR OVC012 03/01 Q1036 BECMG 9999 NSW BKN008
  • 260930Z AUTO 08008KT 050V110 5000 BR OVC012 03/01 Q1036 BECMG BKN008
  • 260900Z AUTO 07005KT 4300 BR BKN012 02/01 Q1036 BECMG 9999 NSW BKN008

TAF TAF LFRH
Valid from the 26 at 12:00 until the 27 at 12:00 UTC


261100Z 2612/2712 05005KT 4500 BR BKN012
TEMPO 2612/2618 7000 NSW SCT012
TEMPO 2621/2702 3000 BR BKN002
TEMPO 2702/2710 1500 BR BKN002
PROB40
TEMPO 2702/2705 0700 FG VV///
PROB40
TEMPO 2705/2710 0500 FG VV///
BECMG 2710/2712 5000 BR BKN003 BKN007



MET'MAP, your aeronautical weather chart ! - Copyright ORBIFLY December 2007 - Disclaimer

ORBIFLY MET'MAP TEAM :

Programming & Development : Alexandra Zaïnal
Original concept : Baudouin d'Aumeries
Technical & hardware support : Manuel Goepfert
Assistance : Marc-Olivier Méhu

Contact : metmap@orbifly.com




SOURCES & CREDITS :

   NOAA